Time;durP1;ratioP1;P1;durP2;ratioP2;P2;SDS_P1;SDS_P2;PMS_P1;PMS_P2;Temp;Humidity;BMP_temperature;BMP_pressure;BME280_temperature;BME280_humidity;BME280_pressure;Samples;Min_cycle;Max_cycle;Signal;HPM_P1;HPM_P2
2022/09/23 10:58:03;;;;;;;;;10.50;9.25;;;;;20.98;36.38;101133.63;4957993;28;44811;-57
2022/09/23 11:00:36;;;;;;;;;11.00;11.00;;;;;20.98;36.53;101131.84;4960637;28;45258;-51
2022/09/23 11:03:14;;;;;;;;;11.75;9.00;;;;;20.99;36.37;101125.66;4943462;28;46060;-59
2022/09/23 11:06:10;;;;;;;;;10.50;9.00;;;;;21.00;36.82;101121.22;4942281;28;45934;-52
2022/09/23 11:08:38;;;;;;;;;11.00;7.75;;;;;21.00;36.57;101111.50;4929558;28;45325;-57
2022/09/23 11:11:10;;;;;;;;;10.00;8.25;;;;;21.01;36.78;101118.50;4937504;28;45392;-54
2022/09/23 11:13:48;;;;;;;;;9.25;9.25;;;;;21.01;36.38;101115.84;4938881;28;46182;-53
2022/09/23 11:16:45;;;;;;;;;11.25;8.75;;;;;21.04;36.29;101116.63;4925906;28;45748;-57
2022/09/23 11:19:44;;;;;;;;;12.25;9.25;;;;;21.03;36.68;101117.56;4924213;28;45343;-59
2022/09/23 11:22:37;;;;;;;;;9.00;9.00;;;;;21.03;36.47;101109.66;4928376;28;45335;-50
2022/09/23 11:25:18;;;;;;;;;15.00;10.00;;;;;21.02;36.32;101106.19;4932202;28;46018;-54
2022/09/23 11:28:08;;;;;;;;;9.00;9.00;;;;;21.04;36.57;101108.72;4926389;28;45820;-57
2022/09/23 11:31:13;;;;;;;;;11.00;7.50;;;;;21.05;36.37;101106.03;4924959;28;45461;-57
2022/09/23 11:34:06;;;;;;;;;11.75;8.75;;;;;21.07;36.29;101100.66;4924455;28;45326;-54
2022/09/23 11:36:46;;;;;;;;;10.50;9.00;;;;;21.07;36.37;101098.88;4928456;28;45358;-56
2022/09/23 11:39:16;;;;;;;;;14.25;10.50;;;;;21.05;36.18;101095.50;4931213;28;45311;-56
2022/09/23 11:41:43;;;;;;;;;10.50;8.75;;;;;21.03;35.69;101096.47;4931605;28;45432;-57
2022/09/23 11:44:15;;;;;;;;;13.75;11.00;;;;;21.00;35.81;101095.72;4933190;28;44785;-57
2022/09/23 11:46:48;;;;;;;;;9.25;9.25;;;;;21.00;35.83;101087.81;4932688;28;45440;-55
2022/09/23 11:49:32;;;;;;;;;11.25;11.25;;;;;21.00;36.39;101082.53;4934672;28;45241;-56
2022/09/23 11:52:08;;;;;;;;;15.75;9.25;;;;;21.03;36.17;101088.56;4932006;28;45289;-56
2022/09/23 11:54:46;;;;;;;;;15.25;12.50;;;;;21.03;36.39;101081.53;4934152;28;45246;-54
2022/09/23 11:57:38;;;;;;;;;12.00;9.50;;;;;21.05;36.58;101078.81;4932389;28;46388;-54
2022/09/23 12:00:11;;;;;;;;;14.50;10.00;;;;;21.06;36.39;101080.50;4928759;28;45319;-52
2022/09/23 12:03:12;;;;;;;;;17.00;11.00;;;;;21.06;36.19;101077.88;4937221;28;44800;-56
2022/09/23 12:05:43;;;;;;;;;15.50;12.25;;;;;21.05;36.37;101073.53;4935709;28;45460;-56
2022/09/23 12:08:29;;;;;;;;;13.00;9.75;;;;;21.06;36.58;101085.78;4932048;28;45736;-56
2022/09/23 12:11:32;;;;;;;;;11.50;10.50;;;;;21.08;36.53;101078.66;4929899;28;46053;-57
2022/09/23 12:14:18;;;;;;;;;13.50;11.00;;;;;21.07;36.52;101072.50;4934539;28;45397;-56
2022/09/23 12:16:57;;;;;;;;;12.00;9.75;;;;;21.08;36.27;101076.84;4937605;28;44645;-56
2022/09/23 12:19:35;;;;;;;;;10.25;9.75;;;;;21.10;36.42;101082.06;4933603;28;46113;-56
2022/09/23 12:22:15;;;;;;;;;14.50;11.50;;;;;21.11;36.45;101083.78;4930094;28;45174;-56
2022/09/23 12:24:47;;;;;;;;;12.75;10.50;;;;;21.12;36.04;101098.63;4925457;28;45344;-50
2022/09/23 12:27:22;;;;;;;;;10.00;9.25;;;;;21.12;36.38;101091.59;4924240;28;45251;-52
2022/09/23 12:29:54;;;;;;;;;12.25;9.25;;;;;21.12;36.21;101096.84;4931990;28;45433;-57
2022/09/23 12:32:20;;;;;;;;;11.00;10.00;;;;;21.13;36.17;101082.75;4935865;28;45385;-53
2022/09/23 12:34:50;;;;;;;;;9.00;9.00;;;;;21.13;35.92;101082.75;4940909;28;45378;-55
2022/09/23 12:37:32;;;;;;;;;11.25;10.25;;;;;21.14;36.03;101070.41;4940710;28;45388;-57
2022/09/23 12:40:05;;;;;;;;;10.50;8.25;;;;;21.14;36.07;101067.75;4922927;28;46162;-55
2022/09/23 12:42:31;;;;;;;;;10.00;8.75;;;;;21.14;36.13;101067.75;4924630;28;45352;-57
2022/09/23 12:45:33;;;;;;;;;9.75;9.75;;;;;21.15;36.02;101058.94;4929168;28;45365;-57
2022/09/23 12:48:22;;;;;;;;;9.00;9.00;;;;;21.15;36.41;101058.94;4922537;28;45207;-57
2022/09/23 12:51:04;;;;;;;;;12.00;9.00;;;;;21.15;36.09;101048.38;4920790;28;46089;-55
2022/09/23 12:53:32;;;;;;;;;10.25;8.25;;;;;21.15;35.96;101048.38;4919909;28;45941;-56
2022/09/23 12:56:19;;;;;;;;;7.50;7.50;;;;;21.13;35.83;101043.22;4921466;28;45318;-57
2022/09/23 12:58:44;;;;;;;;;9.50;7.50;;;;;21.16;36.26;101044.81;4900399;28;45634;-57
2022/09/23 13:01:12;;;;;;;;;8.67;8.00;;;;;21.15;35.99;101043.97;4927129;28;46150;-50
2022/09/23 13:06:41;;;;;;;;;8.25;8.25;;;;;21.16;35.68;101034.28;4931961;28;45306;-57
2022/09/23 13:09:14;;;;;;;;;11.75;10.50;;;;;21.17;36.00;101035.97;4932929;28;45551;-56
2022/09/23 13:11:42;;;;;;;;;10.25;8.50;;;;;21.17;36.05;101028.06;4934486;28;46084;-46
2022/09/23 13:14:13;;;;;;;;;10.00;9.00;;;;;21.18;36.09;101032.41;4934878;28;45253;-54
2022/09/23 13:16:44;;;;;;;;;10.00;9.00;;;;;21.19;36.01;101033.25;4932307;28;45573;-56
2022/09/23 13:19:25;;;;;;;;;9.75;9.50;;;;;21.19;36.00;101034.13;4923166;28;45216;-52
2022/09/23 13:21:53;;;;;;;;;8.00;8.00;;;;;21.19;35.94;101035.88;4922584;28;45417;-55
2022/09/23 13:24:21;;;;;;;;;9.00;8.00;;;;;21.18;35.61;101032.41;4927969;28;45314;-54
2022/09/23 13:26:51;;;;;;;;;8.00;8.00;;;;;21.20;35.65;101029.69;4927148;28;45444;-56
2022/09/23 13:29:50;;;;;;;;;8.00;7.25;;;;;21.18;35.87;101027.13;4939100;28;45282;-55
2022/09/23 13:32:18;;;;;;;;;12.00;9.00;;;;;21.19;36.20;101028.84;4933244;28;45536;-56
2022/09/23 13:34:57;;;;;;;;;8.00;8.00;;;;;21.20;35.87;101024.41;4923271;28;45671;-57
2022/09/23 13:37:28;;;;;;;;;7.25;6.25;;;;;21.20;36.09;101020.00;4932880;28;45237;-55
2022/09/23 13:40:06;;;;;;;;;9.50;9.00;;;;;21.21;36.19;101023.47;4940590;28;45377;-50
2022/09/23 13:42:33;;;;;;;;;9.50;8.25;;;;;21.20;36.05;101016.50;4922063;28;48484;-55
2022/09/23 13:44:59;;;;;;;;;12.00;8.50;;;;;21.20;35.89;101019.13;4921375;28;45382;-46
2022/09/23 13:47:29;;;;;;;;;10.00;8.00;;;;;21.21;36.05;101012.94;4923329;28;45397;-49
2022/09/23 13:49:56;;;;;;;;;7.00;6.25;;;;;21.21;35.81;101002.38;4935354;28;45461;-51
2022/09/23 13:52:30;;;;;;;;;6.50;6.50;;;;;21.20;36.31;101006.81;4931927;28;45419;-50
2022/09/23 13:54:55;;;;;;;;;8.00;8.00;;;;;21.20;36.08;100998.91;4925885;28;45378;-55
2022/09/23 13:57:35;;;;;;;;;11.00;7.75;;;;;21.21;35.93;100999.75;4931972;28;45410;-52
2022/09/23 14:00:19;;;;;;;;;11.00;8.00;;;;;21.20;36.19;100992.78;4933735;28;45453;-57
2022/09/23 14:02:45;;;;;;;;;9.50;6.00;;;;;21.20;36.00;100996.28;4924972;28;45447;-57
2022/09/23 14:05:20;;;;;;;;;6.75;6.25;;;;;21.20;36.06;100998.91;4921950;28;45369;-53
2022/09/23 14:07:46;;;;;;;;;6.25;5.75;;;;;21.20;36.35;100998.91;4919916;28;45449;-56
2022/09/23 14:10:17;;;;;;;;;9.00;7.75;;;;;21.20;36.57;101001.56;4924735;28;45278;-53
2022/09/23 14:12:43;;;;;;;;;6.75;6.25;;;;;21.19;36.27;100991.94;4938106;28;46211;-57
2022/09/23 14:15:17;;;;;;;;;10.50;8.25;;;;;21.21;36.28;100997.97;4926138;28;45869;-55
2022/09/23 14:18:13;;;;;;;;;12.00;8.25;;;;;21.20;36.32;100993.66;4920226;28;45697;-57
2022/09/23 14:20:46;;;;;;;;;10.75;9.75;;;;;21.21;36.53;100983.94;4919514;28;45338;-47
2022/09/23 14:23:15;;;;;;;;;8.75;8.00;;;;;21.22;36.32;100983.00;4918794;28;46197;-56
2022/09/23 14:25:45;;;;;;;;;8.75;6.75;;;;;21.21;36.58;100984.81;4920239;28;45332;-53
2022/09/23 14:28:18;;;;;;;;;12.00;9.00;;;;;21.22;36.43;100986.47;4930590;28;45328;-47
2022/09/23 14:30:46;;;;;;;;;9.50;6.25;;;;;21.22;36.21;100985.63;4911967;28;45546;-49
2022/09/23 14:33:20;;;;;;;;;9.50;8.00;;;;;21.21;36.04;100976.91;4924813;28;46226;-50
2022/09/23 14:35:50;;;;;;;;;11.75;8.75;;;;;21.21;35.95;100969.00;4923845;28;45335;-49
2022/09/23 14:41:20;;;;;;;;;7.75;7.25;;;;;21.21;36.17;100963.72;4920672;28;45794;-45
2022/09/23 14:43:47;;;;;;;;;9.50;8.00;;;;;21.21;36.01;100968.13;4920194;28;46337;-56
2022/09/23 14:46:17;;;;;;;;;9.25;8.50;;;;;21.23;36.33;100966.25;4919380;28;45314;-58
2022/09/23 14:48:51;;;;;;;;;6.00;6.00;;;;;21.24;35.97;100958.25;4918456;28;45456;-57
2022/09/23 14:51:17;;;;;;;;;10.00;9.00;;;;;21.26;36.43;100961.66;4918790;28;45443;-56
2022/09/23 14:53:45;;;;;;;;;11.50;8.75;;;;;21.26;36.31;100953.75;4918623;28;46689;-54
2022/09/23 14:56:10;;;;;;;;;8.00;8.00;;;;;21.26;35.90;100953.75;4927112;28;45747;-53
2022/09/23 14:58:49;;;;;;;;;8.00;8.00;;;;;21.25;35.89;100953.84;4926194;28;45719;-57
2022/09/23 15:01:30;;;;;;;;;8.75;8.25;;;;;21.26;36.28;100956.38;4918873;28;45563;-57
2022/09/23 15:04:20;;;;;;;;;11.00;9.25;;;;;21.25;36.45;100948.56;4929057;28;48615;-59
2022/09/23 15:07:19;;;;;;;;;11.25;7.75;;;;;21.25;36.06;100948.56;4927924;28;45853;-59
2022/09/23 15:09:45;;;;;;;;;12.50;8.25;;;;;21.26;36.09;100948.47;4919310;28;45473;-49
2022/09/23 15:12:14;;;;;;;;;7.00;7.00;;;;;21.29;36.04;100956.22;4925358;28;45163;-42
2022/09/23 15:14:45;;;;;;;;;6.75;6.75;;;;;21.31;36.34;100950.84;4925423;28;46397;-47
2022/09/23 15:17:22;;;;;;;;;7.00;7.00;;;;;21.33;36.46;100953.41;4925317;28;45203;-54
2022/09/23 15:19:55;;;;;;;;;8.25;7.00;;;;;21.33;36.25;100948.16;4930832;28;45342;-49
2022/09/23 15:22:22;;;;;;;;;8.00;6.25;;;;;21.31;36.41;100949.06;4937585;28;44896;-59
2022/09/23 15:24:51;;;;;;;;;7.25;7.00;;;;;21.30;36.48;100939.47;4930191;28;45733;-57
2022/09/23 15:27:34;;;;;;;;;6.00;6.00;;;;;21.31;36.56;100937.66;4938142;28;45226;-55
2022/09/23 15:30:21;;;;;;;;;6.50;6.00;;;;;21.29;36.37;100937.75;4925218;28;45534;-57
2022/09/23 15:32:46;;;;;;;;;7.25;5.25;;;;;21.29;36.41;100939.53;4925143;28;45391;-59
2022/09/23 15:35:17;;;;;;;;;8.25;8.25;;;;;21.29;36.17;100934.25;4924099;28;45632;-57
2022/09/23 15:37:45;;;;;;;;;6.00;6.00;;;;;21.29;36.02;100935.13;4922933;28;45708;-60
2022/09/23 15:40:31;;;;;;;;;8.75;8.00;;;;;21.30;36.35;100935.97;4921795;28;45437;-56
2022/09/23 15:42:59;;;;;;;;;9.00;7.50;;;;;21.29;35.97;100936.91;4927760;28;45396;-57
2022/09/23 15:45:46;;;;;;;;;8.25;6.75;;;;;21.28;35.85;100933.44;4927749;28;46104;-59
2022/09/23 15:48:20;;;;;;;;;8.50;7.00;;;;;21.28;36.11;100922.00;4923425;28;45807;-54
2022/09/23 15:50:45;;;;;;;;;9.25;6.25;;;;;21.28;36.15;100922.88;4922557;28;45503;-57
2022/09/23 15:53:17;;;;;;;;;7.75;6.75;;;;;21.28;36.43;100922.00;4927771;28;45178;-52
2022/09/23 15:55:44;;;;;;;;;5.75;5.75;;;;;21.28;36.24;100925.53;4928390;28;46547;-53
2022/09/23 15:58:09;;;;;;;;;6.50;6.00;;;;;21.29;36.39;100913.16;4928462;28;45366;-57
2022/09/23 16:00:35;;;;;;;;;6.00;6.00;;;;;21.28;36.15;100907.06;4938743;28;44841;-55
2022/09/23 16:03:01;;;;;;;;;6.00;6.00;;;;;21.28;36.15;100904.44;4952528;28;45255;-57
2022/09/23 16:05:32;;;;;;;;;6.00;4.00;;;;;21.27;36.15;100894.81;4948721;28;45432;-56
2022/09/23 16:07:58;;;;;;;;;7.75;6.00;;;;;21.27;36.25;100893.97;4942967;28;45408;-57
2022/09/23 16:10:23;;;;;;;;;7.25;6.00;;;;;21.27;36.34;100889.53;4941777;28;45270;-57
2022/09/23 16:12:52;;;;;;;;;6.75;6.75;;;;;21.27;36.36;100897.47;4946688;28;45395;-58
2022/09/23 16:15:19;;;;;;;;;8.50;6.00;;;;;21.28;36.16;100900.94;4956329;28;47070;-55
2022/09/23 16:17:45;;;;;;;;;7.00;7.00;;;;;21.28;36.27;100893.88;4921532;28;45499;-57
2022/09/23 16:20:12;;;;;;;;;7.75;6.25;;;;;21.30;36.10;100899.91;4923473;28;45423;-53
2022/09/23 16:22:38;;;;;;;;;7.50;7.50;;;;;21.28;36.27;100896.53;4923486;28;45499;-60
2022/09/23 16:25:04;;;;;;;;;9.00;6.75;;;;;21.31;36.06;100896.34;4920859;28;47317;-59
2022/09/23 16:27:30;;;;;;;;;5.25;5.25;;;;;21.31;36.21;100893.72;4920013;28;45896;-59
2022/09/23 16:29:55;;;;;;;;;6.00;6.00;;;;;21.29;35.78;100890.31;4919342;28;45273;-51
2022/09/23 16:32:22;;;;;;;;;6.25;5.25;;;;;21.29;35.95;100887.69;4920945;28;45782;-58
2022/09/23 16:34:48;;;;;;;;;7.00;7.00;;;;;21.28;36.01;100891.25;4918061;28;45732;-57
2022/09/23 16:37:20;;;;;;;;;5.75;5.25;;;;;21.30;35.97;100888.50;4921439;28;45273;-56
2022/09/23 16:39:48;;;;;;;;;5.75;5.75;;;;;21.29;36.22;100889.44;4920804;28;45244;-57
2022/09/23 16:42:13;;;;;;;;;7.50;7.00;;;;;21.28;35.92;100882.47;4921312;28;45295;-55
2022/09/23 16:44:40;;;;;;;;;7.50;4.75;;;;;21.29;36.17;100887.69;4920025;28;47920;-58
2022/09/23 16:47:06;;;;;;;;;5.00;5.00;;;;;21.27;36.33;100884.28;4922671;28;45318;-61
2022/09/23 16:49:31;;;;;;;;;7.00;5.50;;;;;21.28;36.13;100877.19;4922480;28;45288;-55
2022/09/23 16:51:57;;;;;;;;;6.50;5.75;;;;;21.27;36.29;100873.72;4927254;28;45340;-50
2022/09/23 16:54:23;;;;;;;;;6.00;6.00;;;;;21.29;35.74;100869.22;4923366;28;46781;-56
2022/09/23 16:56:49;;;;;;;;;5.75;5.75;;;;;21.30;35.68;100877.97;4884254;28;1153686;-55
2022/09/23 16:59:15;;;;;;;;;9.75;6.00;;;;;21.30;36.12;100872.69;4926800;28;45301;-56
2022/09/23 17:04:26;;;;;;;;;6.25;5.00;;;;;21.33;35.88;100872.53;4923020;28;45845;-56
2022/09/23 17:06:52;;;;;;;;;7.00;5.25;;;;;21.34;35.92;100873.34;4923536;28;45877;-57
2022/09/23 17:09:20;;;;;;;;;6.75;5.50;;;;;21.34;35.89;100881.28;4927818;28;45234;-58
2022/09/23 17:11:51;;;;;;;;;4.75;4.75;;;;;21.32;36.03;100876.09;4929070;28;45274;-59
2022/09/23 17:14:17;;;;;;;;;8.50;8.00;;;;;21.33;35.66;100876.97;4929893;28;47043;-54
2022/09/23 17:16:42;;;;;;;;;6.25;6.00;;;;;21.33;35.93;100875.16;4933343;28;45289;-51
2022/09/23 17:19:10;;;;;;;;;6.50;6.00;;;;;21.31;36.07;100877.91;4933328;28;45276;-57
2022/09/23 17:21:35;;;;;;;;;9.25;6.00;;;;;21.31;36.06;100874.41;4933895;28;45314;-55
2022/09/23 17:24:01;;;;;;;;;5.50;5.50;;;;;21.31;35.87;100880.53;4929993;28;46065;-52
2022/09/23 17:26:27;;;;;;;;;6.75;5.00;;;;;21.31;36.06;100888.44;4932249;28;45341;-53
2022/09/23 17:28:55;;;;;;;;;7.00;5.00;;;;;21.33;36.07;100887.50;4927869;28;45470;-54
2022/09/23 17:31:21;;;;;;;;;5.25;5.25;;;;;21.31;35.70;100883.16;4934696;28;45302;-57
2022/09/23 17:33:47;;;;;;;;;7.50;6.50;;;;;21.31;35.73;100891.06;4930283;28;45337;-55
2022/09/23 17:36:13;;;;;;;;;7.00;4.25;;;;;21.30;35.63;100884.09;4932998;28;45261;-52
2022/09/23 17:38:41;;;;;;;;;8.50;6.00;;;;;21.30;36.26;100880.59;4927936;28;45338;-56
2022/09/23 17:41:08;;;;;;;;;6.50;5.25;;;;;21.28;36.07;100869.28;4921656;28;45435;-53
2022/09/23 17:43:35;;;;;;;;;7.75;5.25;;;;;21.28;35.71;100875.44;4919828;28;45550;-54
2022/09/23 17:46:05;;;;;;;;;7.50;6.00;;;;;21.28;35.70;100870.16;4924602;28;45377;-53
2022/09/23 17:48:32;;;;;;;;;4.50;4.50;;;;;21.29;35.89;100871.84;4920516;28;45464;-51
2022/09/23 17:51:11;;;;;;;;;6.75;5.50;;;;;21.32;36.10;100868.19;4919909;28;45537;-52
2022/09/23 17:53:38;;;;;;;;;5.50;5.50;;;;;21.33;36.19;100866.41;4918552;28;45418;-58
2022/09/23 17:56:09;;;;;;;;;6.75;6.75;;;;;21.36;36.20;100863.56;4925674;28;45471;-53
2022/09/23 17:58:36;;;;;;;;;6.50;6.00;;;;;21.38;36.02;100866.97;4930232;28;45294;-52
2022/09/23 18:01:02;;;;;;;;;6.50;6.25;;;;;21.41;35.98;100865.00;4938075;28;45511;-49
2022/09/23 18:03:29;;;;;;;;;7.00;6.00;;;;;21.46;35.95;100862.09;4929620;28;45270;-53
2022/09/23 18:06:05;;;;;;;;;8.00;6.00;;;;;21.54;36.19;100862.53;4922527;28;45907;-49
2022/09/23 18:08:30;;;;;;;;;7.00;5.75;;;;;21.61;35.96;100860.38;4930763;28;44866;-49
2022/09/23 18:10:55;;;;;;;;;6.75;6.75;;;;;21.68;35.92;100858.22;4933687;28;45439;-53
2022/09/23 18:13:21;;;;;;;;;6.00;6.00;;;;;21.76;36.01;100869.19;4927644;28;61263;-60
2022/09/23 18:15:46;;;;;;;;;6.00;6.00;;;;;21.83;35.91;100857.31;4933552;28;44772;-62
2022/09/23 18:18:11;;;;;;;;;7.50;6.00;;;;;21.90;35.51;100849.88;4944788;28;45476;-52
2022/09/23 18:20:37;;;;;;;;;8.75;6.50;;;;;21.98;35.72;100854.69;4946014;28;45358;-51
2022/09/23 18:23:02;;;;;;;;;8.00;6.50;;;;;22.03;35.63;100855.22;4947760;28;46340;-54
2022/09/23 18:25:28;;;;;;;;;10.00;6.00;;;;;22.10;35.51;100853.94;4955751;28;44794;-49
2022/09/23 18:27:53;;;;;;;;;8.25;7.00;;;;;22.15;35.32;100857.13;4943733;28;45482;-45
2022/09/23 18:30:19;;;;;;;;;7.25;6.00;;;;;22.21;35.48;100859.38;4925447;28;45636;-54
2022/09/23 18:32:44;;;;;;;;;11.00;6.00;;;;;22.27;35.32;100857.28;4918247;28;46407;-56
2022/09/23 18:35:10;;;;;;;;;7.75;6.00;;;;;22.32;35.15;100857.88;4919923;28;45368;-52
2022/09/23 18:37:35;;;;;;;;;6.75;6.75;;;;;22.36;35.59;100856.72;4920808;28;45476;-54
2022/09/23 18:40:00;;;;;;;;;6.00;6.00;;;;;22.41;35.31;100859.97;4928316;28;45230;-54
2022/09/23 18:42:26;;;;;;;;;7.25;7.25;;;;;22.45;35.49;100861.44;4934479;28;46489;-54
2022/09/23 18:44:55;;;;;;;;;5.75;5.75;;;;;22.50;34.91;100869.06;4923424;28;45275;-54
2022/09/23 18:52:49;;;;;;;;;5.50;5.50;;;;;22.63;34.99;100871.81;4928330;28;45787;-58
2022/09/23 18:55:15;;;;;;;;;7.00;7.00;;;;;22.65;34.53;100870.75;4926442;28;49891;-62
2022/09/23 18:57:40;;;;;;;;;6.25;6.25;;;;;22.69;34.37;100868.75;4922277;28;45318;-54
2022/09/23 19:00:08;;;;;;;;;9.75;8.00;;;;;22.72;34.81;100868.56;4920686;28;45514;-62
2022/09/23 19:02:33;;;;;;;;;5.75;5.75;;;;;22.74;34.54;100871.97;4919406;28;46874;-56
2022/09/23 19:04:58;;;;;;;;;8.00;5.00;;;;;22.75;34.48;100865.75;4920885;28;45435;-60
2022/09/23 19:07:24;;;;;;;;;7.25;5.75;;;;;22.77;34.91;100874.38;4922029;28;45358;-59
2022/09/23 19:09:49;;;;;;;;;10.00;8.00;;;;;22.80;34.65;100876.00;4923545;28;45571;-57
2022/09/23 19:12:14;;;;;;;;;5.75;5.00;;;;;22.80;34.73;100866.28;4924285;28;49902;-62
2022/09/23 19:14:42;;;;;;;;;6.25;5.75;;;;;22.80;34.82;100871.56;4918852;28;53951;-57
2022/09/23 19:17:07;;;;;;;;;7.25;6.25;;;;;22.81;34.47;100865.31;4921704;28;45293;-59
2022/09/23 19:19:36;;;;;;;;;7.25;7.25;;;;;22.83;34.30;100874.00;4923242;28;45179;-57
2022/09/23 19:22:01;;;;;;;;;5.50;5.50;;;;;22.83;34.63;100866.09;4924316;28;46471;-61
2022/09/23 19:24:27;;;;;;;;;7.50;7.50;;;;;22.82;34.60;100867.03;4934229;28;44699;-60
2022/09/23 19:26:53;;;;;;;;;6.75;6.75;;;;;22.83;34.51;100868.72;4920534;28;45534;-57
2022/09/23 19:29:20;;;;;;;;;7.75;7.00;;;;;22.83;34.58;100870.50;4925149;28;45558;-59
2022/09/23 19:31:47;;;;;;;;;7.75;7.75;;;;;22.82;34.30;100872.31;4925137;28;46336;-56
2022/09/23 19:34:22;;;;;;;;;9.50;7.50;;;;;22.82;34.50;100872.31;4919702;28;45259;-55
2022/09/23 19:36:48;;;;;;;;;9.25;8.00;;;;;22.82;34.37;100871.47;4920042;28;45243;-53
2022/09/23 19:39:18;;;;;;;;;7.00;7.00;;;;;22.79;34.51;100875.16;4924581;28;45348;-51
2022/09/23 19:41:45;;;;;;;;;8.25;6.50;;;;;22.81;34.49;100867.97;4920307;28;46361;-55
2022/09/23 19:44:11;;;;;;;;;10.00;8.00;;;;;22.80;34.37;100873.38;4917703;28;45410;-60
2022/09/23 19:46:39;;;;;;;;;9.00;8.25;;;;;22.79;34.61;100869.84;4916952;28;45369;-50
2022/09/23 19:49:06;;;;;;;;;6.75;6.25;;;;;22.79;34.50;100864.56;4917140;28;45366;-50
2022/09/23 19:51:33;;;;;;;;;9.75;9.00;;;;;22.77;34.40;100863.81;4917803;28;45445;-59
2022/09/23 19:54:02;;;;;;;;;12.75;8.75;;;;;22.77;34.23;100861.19;4917546;28;45819;-55
2022/09/23 19:56:29;;;;;;;;;8.25;7.75;;;;;22.77;34.04;100860.34;4919215;28;45259;-51
2022/09/23 19:58:57;;;;;;;;;9.50;7.25;;;;;22.75;34.03;100860.44;4927325;28;45712;-58
2022/09/23 20:01:23;;;;;;;;;7.00;7.00;;;;;22.74;33.90;100853.47;4933321;28;46409;-58
2022/09/23 20:03:49;;;;;;;;;7.00;6.00;;;;;22.73;33.92;100854.41;4930076;28;46014;-58
2022/09/23 20:06:16;;;;;;;;;6.50;6.50;;;;;22.72;34.03;100855.34;4932057;28;45861;-57
2022/09/23 20:08:42;;;;;;;;;8.00;7.75;;;;;22.69;33.83;100864.34;4935742;28;45246;-53
2022/09/23 20:11:12;;;;;;;;;9.75;8.75;;;;;22.69;33.83;100858.19;4929053;28;46428;-59
2022/09/23 20:13:39;;;;;;;;;13.25;8.25;;;;;22.67;33.53;100850.38;4924391;28;45443;-60
2022/09/23 20:16:10;;;;;;;;;7.75;7.75;;;;;22.67;33.75;100854.78;4926797;28;45350;-59
2022/09/23 20:18:39;;;;;;;;;7.25;7.00;;;;;22.66;34.29;100853.97;4927265;28;45611;-58
2022/09/23 20:21:06;;;;;;;;;7.00;7.00;;;;;22.66;34.04;100853.09;4935493;28;46100;-58
2022/09/23 20:23:32;;;;;;;;;10.75;7.50;;;;;22.67;34.14;100860.06;4926993;28;45422;-56
2022/09/23 20:28:43;;;;;;;;;8.50;7.50;;;;;22.65;34.20;100854.06;4924629;28;45259;-58
2022/09/23 20:31:10;;;;;;;;;9.75;7.75;;;;;22.64;34.29;100853.19;4925813;28;46694;-58
2022/09/23 20:33:36;;;;;;;;;8.00;7.00;;;;;22.65;34.26;100851.44;4922024;28;45338;-55
2022/09/23 20:36:02;;;;;;;;;9.00;8.50;;;;;22.64;34.00;100844.44;4921144;28;45446;-55
2022/09/23 20:38:27;;;;;;;;;9.00;7.00;;;;;22.65;35.09;100846.16;4924529;28;45471;-49
2022/09/23 20:40:56;;;;;;;;;9.00;7.50;;;;;22.65;34.85;100846.16;4933674;28;46262;-55
2022/09/23 20:43:23;;;;;;;;;7.25;7.00;;;;;22.65;34.92;100841.69;4928222;28;45318;-55
2022/09/23 20:45:51;;;;;;;;;11.00;7.00;;;;;22.63;35.69;100840.94;4923676;28;45303;-47
2022/09/23 20:48:16;;;;;;;;;9.00;7.00;;;;;22.61;35.92;100842.00;4927743;28;45448;-52
2022/09/23 20:50:42;;;;;;;;;8.75;7.00;;;;;22.59;36.29;100849.16;4926135;28;45267;-54
2022/09/23 20:53:07;;;;;;;;;7.75;6.25;;;;;22.55;36.33;100841.44;4926954;28;45397;-52
2022/09/23 20:55:33;;;;;;;;;9.75;8.50;;;;;22.53;36.69;100840.69;4922344;28;45302;-54
2022/09/23 20:58:00;;;;;;;;;7.25;7.25;;;;;22.50;37.04;100840.03;4926814;28;45520;-56
2022/09/23 21:00:25;;;;;;;;;5.50;5.50;;;;;22.49;37.42;100835.72;4925942;28;46243;-55
2022/09/23 21:02:51;;;;;;;;;7.75;7.75;;;;;22.48;37.68;100844.56;4925055;28;45253;-55
2022/09/23 21:05:16;;;;;;;;;7.25;7.25;;;;;22.46;38.33;100830.63;4925042;28;45200;-55
2022/09/23 21:07:45;;;;;;;;;4.00;3.00;;;;;22.43;38.51;100836.09;4922244;28;45323;-48
2022/09/23 21:10:10;;;;;;;;;6.50;6.50;;;;;22.42;39.37;100843.19;4924163;28;46094;-53
2022/09/23 21:12:36;;;;;;;;;10.00;9.25;;;;;22.39;39.46;100835.41;4929361;28;45248;-53
2022/09/23 21:15:03;;;;;;;;;8.00;6.25;;;;;22.39;40.15;100835.41;4929288;28;45749;-55
2022/09/23 21:17:29;;;;;;;;;10.25;8.00;;;;;22.37;40.57;100832.88;4927169;28;45517;-57
2022/09/23 21:19:54;;;;;;;;;9.00;7.75;;;;;22.35;40.80;100828.63;4924406;28;45957;-53
2022/09/23 21:22:19;;;;;;;;;9.00;8.00;;;;;22.33;40.71;100828.72;4929757;28;45417;-55
2022/09/23 21:24:45;;;;;;;;;8.00;8.00;;;;;22.32;41.43;100834.09;4927746;28;45280;-56
2022/09/23 21:27:10;;;;;;;;;11.25;8.00;;;;;22.30;41.57;100823.63;4932337;28;45195;-52
2022/09/23 21:29:36;;;;;;;;;8.75;7.00;;;;;22.30;42.22;100828.91;4923905;28;46254;-58
2022/09/23 21:32:02;;;;;;;;;9.00;8.00;;;;;22.28;42.49;100824.69;4926586;28;45233;-57
2022/09/23 21:34:30;;;;;;;;;8.25;8.00;;;;;22.26;42.48;100827.44;4932248;28;45263;-55
2022/09/23 21:36:56;;;;;;;;;8.25;7.50;;;;;22.24;42.57;100822.22;4924769;28;45528;-56
2022/09/23 21:39:21;;;;;;;;;8.50;6.25;;;;;22.23;42.78;100825.81;4920161;28;46449;-55
2022/09/23 21:41:47;;;;;;;;;6.67;6.00;;;;;22.22;42.78;100826.75;4920388;28;52498;-57
2022/09/23 21:44:12;;;;;;;;;9.75;8.25;;;;;22.21;42.91;100832.97;4919860;28;45447;-56
2022/09/23 21:46:37;;;;;;;;;8.00;8.00;;;;;22.20;43.12;100826.03;4920436;28;45327;-54
2022/09/23 21:49:03;;;;;;;;;4.75;4.75;;;;;22.19;43.20;100845.44;4920780;28;47996;-55
2022/09/23 21:51:39;;;;;;;;;9.00;7.75;;;;;22.18;43.21;100851.66;4922756;28;45243;-54
2022/09/23 21:54:07;;;;;;;;;6.00;6.00;;;;;22.16;43.48;100848.25;4926842;28;45423;-55
2022/09/23 21:56:35;;;;;;;;;8.00;7.00;;;;;22.16;43.33;100848.25;4925560;28;45179;-53
2022/09/23 21:59:01;;;;;;;;;10.00;8.75;;;;;22.16;43.93;100839.50;4922160;28;46991;-56
2022/09/23 22:01:28;;;;;;;;;7.75;6.00;;;;;22.14;44.10;100846.66;4920202;28;45428;-45
2022/09/23 22:03:56;;;;;;;;;9.00;7.50;;;;;22.14;43.69;100846.66;4928284;28;45273;-52
2022/09/23 22:06:27;;;;;;;;;8.00;7.00;;;;;22.12;44.03;100852.03;4934388;28;45335;-56
2022/09/23 22:08:59;;;;;;;;;8.25;8.25;;;;;22.12;43.76;100854.66;4923007;28;46320;-57
2022/09/23 22:14:16;;;;;;;;;8.25;7.00;;;;;22.09;43.96;100849.59;4927303;28;45280;-56
2022/09/23 22:16:42;;;;;;;;;10.50;7.75;;;;;22.07;43.72;100856.75;4924526;28;45595;-57
2022/09/23 22:19:08;;;;;;;;;9.00;8.00;;;;;22.06;43.61;100849.78;4929137;28;45328;-53
2022/09/23 22:21:36;;;;;;;;;9.25;6.25;;;;;22.07;43.94;100856.75;4935690;28;45129;-48
2022/09/23 22:24:03;;;;;;;;;8.75;7.00;;;;;22.05;44.00;100858.63;4941420;28;45585;-57
2022/09/23 22:26:34;;;;;;;;;6.25;5.00;;;;;22.05;44.02;100853.34;4925400;28;45315;-58
2022/09/23 22:34:27;;;;;;;;;5.50;5.50;;;;;22.01;44.29;100850.06;4921994;28;45334;-54
2022/09/23 22:36:58;;;;;;;;;8.00;7.25;;;;;22.00;44.15;100848.34;4918413;28;45307;-54
2022/09/23 22:39:24;;;;;;;;;9.25;7.00;;;;;21.99;44.24;100848.47;4920295;28;46167;-52
2022/09/23 22:41:50;;;;;;;;;8.50;8.50;;;;;21.99;44.12;100844.03;4924564;28;45516;-57
2022/09/23 22:44:17;;;;;;;;;7.75;7.75;;;;;21.99;44.35;100845.81;4921267;28;45213;-53
2022/09/23 22:46:43;;;;;;;;;12.00;8.00;;;;;21.97;43.99;100840.63;4918683;28;45480;-54
2022/09/23 22:49:09;;;;;;;;;10.00;8.50;;;;;21.98;44.31;100836.22;4918494;28;46221;-53
2022/09/23 22:51:39;;;;;;;;;8.00;7.00;;;;;21.97;44.48;100837.97;4923140;28;45563;-55
2022/09/23 22:54:05;;;;;;;;;9.50;7.75;;;;;21.96;44.66;100832.81;4926795;28;45358;-57
2022/09/23 22:56:30;;;;;;;;;9.50;7.75;;;;;21.95;44.72;100829.31;4932687;28;45592;-51
2022/09/23 22:59:02;;;;;;;;;10.75;9.75;;;;;21.96;44.67;100822.25;4923087;28;45630;-56